LESO/EAS METAR and TAF weather

Enter ICAO airport designator
Station Type Date Time Source
LESO METAR 2022/08/12 14:30 UTC NOAA

LESO 121430Z 36006KT 320V050 9999 FEW012 26/22 Q1013


Station Type Date Time Source
LESO Decoded METAR 2022/08/12 14:30 UTC NOAA

San Sebastian / Fuenterrabia, Spain (LESO) 43-21N 001-48W 8M
Aug 12, 2022 - 10:30 AM EDT / 2022.08.12 1430 UTC
Wind: from the N (360 degrees) at 7 MPH (6 KT) (direction variable):0
Visibility: greater than 7 mile(s):0
Sky conditions: mostly clear
Temperature: 78 F (26 C)
Dew Point: 71 F (22 C)
Relative Humidity: 78%
Pressure (altimeter): 29.91 in. Hg (1013 hPa)
ob: LESO 121430Z 36006KT 320V050 9999 FEW012 26/22 Q1013
cycle: 14

Station Type Date Time Source
LESO TAF 2022/08/12 12:27 UTC NOAA

TAF LESO 121100Z 1212/1312 25008KT 9999 SCT010 TX28/1215Z TN21/1305Z
TEMPO 1212/1216 36010KT PROB40
TEMPO 1218/1309 BKN010
TEMPO 1310/1312 01010KT

Example: see airport list